sensor_id;sensor_type;location;lat;lon;timestamp;pressure;altitude;pressure_sealevel;temperature;humidity
58467;BME280;44255;49.244;7.726;2022-07-29T03:31:06;98087.63;;;13.78;59.25
58467;BME280;44255;49.244;7.726;2022-07-29T03:33:31;98082.38;;;13.76;58.95
58467;BME280;44255;49.244;7.726;2022-07-29T03:35:57;98090.78;;;13.72;59.23
58467;BME280;44255;49.244;7.726;2022-07-29T03:38:24;98089.41;;;13.90;58.77
58467;BME280;44255;49.244;7.726;2022-07-29T03:41:04;98082.81;;;13.70;59.96
58467;BME280;44255;49.244;7.726;2022-07-29T03:43:32;98085.16;;;13.51;60.06
58467;BME280;44255;49.244;7.726;2022-07-29T03:45:59;98079.19;;;13.34;60.08
58467;BME280;44255;49.244;7.726;2022-07-29T03:48:26;98082.50;;;13.38;60.04
58467;BME280;44255;49.244;7.726;2022-07-29T03:50:55;98085.31;;;13.36;59.87
58467;BME280;44255;49.244;7.726;2022-07-29T03:53:20;98088.81;;;13.50;59.51
58467;BME280;44255;49.244;7.726;2022-07-29T03:55:50;98092.59;;;13.47;59.88
58467;BME280;44255;49.244;7.726;2022-07-29T03:58:16;98096.53;;;13.30;60.44
58467;BME280;44255;49.244;7.726;2022-07-29T04:00:43;98096.81;;;13.51;59.87
58467;BME280;44255;49.244;7.726;2022-07-29T04:03:09;98099.72;;;13.72;59.09
58467;BME280;44255;49.244;7.726;2022-07-29T04:05:35;98100.44;;;13.26;60.63
58467;BME280;44255;49.244;7.726;2022-07-29T04:08:00;98107.53;;;13.14;61.08
58467;BME280;44255;49.244;7.726;2022-07-29T04:10:26;98110.47;;;13.11;61.63
58467;BME280;44255;49.244;7.726;2022-07-29T04:12:51;98106.28;;;13.07;61.24
58467;BME280;44255;49.244;7.726;2022-07-29T04:15:17;98117.56;;;13.12;61.34
58467;BME280;44255;49.244;7.726;2022-07-29T04:17:43;98110.97;;;13.29;60.42
58467;BME280;44255;49.244;7.726;2022-07-29T04:20:09;98112.56;;;13.44;59.42
58467;BME280;44255;49.244;7.726;2022-07-29T04:22:34;98123.50;;;13.17;60.48
58467;BME280;44255;49.244;7.726;2022-07-29T04:24:59;98122.41;;;13.19;60.53
58467;BME280;44255;49.244;7.726;2022-07-29T04:27:25;98130.25;;;13.36;60.82
58467;BME280;44255;49.244;7.726;2022-07-29T04:29:50;98128.91;;;13.17;60.89
58467;BME280;44255;49.244;7.726;2022-07-29T04:32:16;98133.94;;;13.09;61.71
58467;BME280;44255;49.244;7.726;2022-07-29T04:34:41;98132.88;;;13.11;61.12
58467;BME280;44255;49.244;7.726;2022-07-29T04:37:06;98133.31;;;13.18;60.89
58467;BME280;44255;49.244;7.726;2022-07-29T04:39:32;98134.88;;;13.33;60.42
58467;BME280;44255;49.244;7.726;2022-07-29T04:41:57;98130.09;;;13.50;59.72
58467;BME280;44255;49.244;7.726;2022-07-29T04:44:22;98132.00;;;13.61;58.98
58467;BME280;44255;49.244;7.726;2022-07-29T04:46:47;98134.94;;;13.45;60.44
58467;BME280;44255;49.244;7.726;2022-07-29T04:49:13;98135.78;;;13.21;61.03
58467;BME280;44255;49.244;7.726;2022-07-29T04:51:38;98133.00;;;13.47;60.35
58467;BME280;44255;49.244;7.726;2022-07-29T04:54:03;98136.06;;;13.42;60.28
58467;BME280;44255;49.244;7.726;2022-07-29T04:56:29;98133.09;;;13.58;59.86
58467;BME280;44255;49.244;7.726;2022-07-29T04:58:54;98131.22;;;13.72;60.21
58467;BME280;44255;49.244;7.726;2022-07-29T05:01:19;98133.66;;;13.75;59.79
58467;BME280;44255;49.244;7.726;2022-07-29T05:03:45;98132.03;;;13.85;59.40
58467;BME280;44255;49.244;7.726;2022-07-29T05:06:11;98137.44;;;13.97;58.87
58467;BME280;44255;49.244;7.726;2022-07-29T05:08:37;98129.53;;;14.31;58.14
58467;BME280;44255;49.244;7.726;2022-07-29T05:11:02;98129.72;;;14.16;58.46
58467;BME280;44255;49.244;7.726;2022-07-29T05:13:28;98129.66;;;14.29;58.14
58467;BME280;44255;49.244;7.726;2022-07-29T05:15:54;98134.31;;;14.74;56.70
58467;BME280;44255;49.244;7.726;2022-07-29T05:18:19;98137.38;;;14.81;56.83
58467;BME280;44255;49.244;7.726;2022-07-29T05:20:44;98145.28;;;14.96;56.31
58467;BME280;44255;49.244;7.726;2022-07-29T05:23:10;98131.03;;;15.05;55.83
58467;BME280;44255;49.244;7.726;2022-07-29T05:25:37;98129.69;;;15.11;56.35
58467;BME280;44255;49.244;7.726;2022-07-29T05:28:03;98132.63;;;15.30;55.66
58467;BME280;44255;49.244;7.726;2022-07-29T05:30:28;98128.69;;;15.57;54.31
58467;BME280;44255;49.244;7.726;2022-07-29T05:32:53;98124.47;;;15.65;54.58
58467;BME280;44255;49.244;7.726;2022-07-29T05:35:19;98139.97;;;15.51;54.87
58467;BME280;44255;49.244;7.726;2022-07-29T05:37:44;98136.16;;;15.54;54.88
58467;BME280;44255;49.244;7.726;2022-07-29T05:40:09;98119.53;;;15.70;54.86
58467;BME280;44255;49.244;7.726;2022-07-29T05:42:35;98128.00;;;15.88;54.36
58467;BME280;44255;49.244;7.726;2022-07-29T05:45:01;98130.28;;;16.04;54.20
58467;BME280;44255;49.244;7.726;2022-07-29T05:47:26;98133.88;;;16.47;52.99
58467;BME280;44255;49.244;7.726;2022-07-29T05:49:52;98134.03;;;16.45;53.45
58467;BME280;44255;49.244;7.726;2022-07-29T05:52:20;98131.22;;;16.68;52.42
58467;BME280;44255;49.244;7.726;2022-07-29T05:54:46;98131.47;;;16.86;52.08
58467;BME280;44255;49.244;7.726;2022-07-29T05:57:22;98134.56;;;17.03;51.32
58467;BME280;44255;49.244;7.726;2022-07-29T05:59:48;98138.97;;;17.04;51.41
58467;BME280;44255;49.244;7.726;2022-07-29T06:02:14;98137.47;;;17.21;50.72
58467;BME280;44255;49.244;7.726;2022-07-29T06:04:39;98141.63;;;17.25;51.01
58467;BME280;44255;49.244;7.726;2022-07-29T06:07:05;98142.91;;;17.21;51.19
58467;BME280;44255;49.244;7.726;2022-07-29T06:09:31;98138.81;;;17.37;50.42
58467;BME280;44255;49.244;7.726;2022-07-29T06:11:57;98140.41;;;17.39;51.03
58467;BME280;44255;49.244;7.726;2022-07-29T06:14:23;98138.84;;;17.47;50.42
58467;BME280;44255;49.244;7.726;2022-07-29T06:16:48;98140.81;;;17.35;50.78
58467;BME280;44255;49.244;7.726;2022-07-29T06:19:14;98145.78;;;17.29;51.15
58467;BME280;44255;49.244;7.726;2022-07-29T06:21:43;98143.78;;;17.53;50.59
58467;BME280;44255;49.244;7.726;2022-07-29T06:24:13;98143.81;;;17.63;49.82
58467;BME280;44255;49.244;7.726;2022-07-29T06:26:39;98137.69;;;17.70;50.01
58467;BME280;44255;49.244;7.726;2022-07-29T06:29:05;98143.13;;;17.90;49.74
58467;BME280;44255;49.244;7.726;2022-07-29T06:31:30;98151.56;;;17.97;48.93
58467;BME280;44255;49.244;7.726;2022-07-29T06:33:55;98148.38;;;17.82;48.92
58467;BME280;44255;49.244;7.726;2022-07-29T06:36:20;98158.59;;;17.58;49.90
58467;BME280;44255;49.244;7.726;2022-07-29T06:38:46;98155.06;;;17.68;49.65
58467;BME280;44255;49.244;7.726;2022-07-29T06:41:11;98158.97;;;17.44;50.63
58467;BME280;44255;49.244;7.726;2022-07-29T06:43:42;98155.53;;;17.93;50.10
58467;BME280;44255;49.244;7.726;2022-07-29T06:46:12;98162.16;;;18.20;49.18
58467;BME280;44255;49.244;7.726;2022-07-29T06:48:39;98165.28;;;18.15;50.12
58467;BME280;44255;49.244;7.726;2022-07-29T06:51:06;98170.19;;;18.31;49.26
58467;BME280;44255;49.244;7.726;2022-07-29T06:53:32;98163.16;;;18.19;50.00
58467;BME280;44255;49.244;7.726;2022-07-29T06:55:59;98161.75;;;18.44;49.33
58467;BME280;44255;49.244;7.726;2022-07-29T06:58:26;98163.16;;;18.58;49.49
58467;BME280;44255;49.244;7.726;2022-07-29T07:00:52;98170.03;;;18.62;50.19
58467;BME280;44255;49.244;7.726;2022-07-29T07:03:18;98173.63;;;18.33;51.64
58467;BME280;44255;49.244;7.726;2022-07-29T07:05:43;98183.06;;;18.58;51.19
58467;BME280;44255;49.244;7.726;2022-07-29T07:08:10;98179.06;;;18.33;51.02
58467;BME280;44255;49.244;7.726;2022-07-29T07:10:35;98174.19;;;18.66;50.29
58467;BME280;44255;49.244;7.726;2022-07-29T07:13:01;98184.91;;;18.38;50.74
58467;BME280;44255;49.244;7.726;2022-07-29T07:15:27;98183.06;;;18.29;50.95
58467;BME280;44255;49.244;7.726;2022-07-29T07:17:53;98193.03;;;18.68;50.27
58467;BME280;44255;49.244;7.726;2022-07-29T07:20:18;98196.47;;;18.60;50.98
58467;BME280;44255;49.244;7.726;2022-07-29T07:22:43;98195.00;;;18.85;50.53
58467;BME280;44255;49.244;7.726;2022-07-29T07:25:09;98193.72;;;18.99;50.55
58467;BME280;44255;49.244;7.726;2022-07-29T07:27:36;98195.00;;;19.15;49.53
58467;BME280;44255;49.244;7.726;2022-07-29T07:30:02;98192.00;;;19.46;49.08
58467;BME280;44255;49.244;7.726;2022-07-29T07:32:28;98195.09;;;19.23;49.50
58467;BME280;44255;49.244;7.726;2022-07-29T07:34:53;98193.78;;;19.27;49.55
58467;BME280;44255;49.244;7.726;2022-07-29T07:37:19;98183.97;;;19.54;48.92
58467;BME280;44255;49.244;7.726;2022-07-29T07:39:45;98187.59;;;19.73;47.85
58467;BME280;44255;49.244;7.726;2022-07-29T07:42:11;98186.97;;;19.89;46.94
58467;BME280;44255;49.244;7.726;2022-07-29T07:44:38;98185.81;;;19.92;46.69
58467;BME280;44255;49.244;7.726;2022-07-29T07:47:03;98182.69;;;19.87;48.29
58467;BME280;44255;49.244;7.726;2022-07-29T07:49:29;98180.03;;;19.39;48.60
58467;BME280;44255;49.244;7.726;2022-07-29T07:51:54;98189.81;;;19.32;49.30
58467;BME280;44255;49.244;7.726;2022-07-29T07:54:19;98190.50;;;19.62;47.93
58467;BME280;44255;49.244;7.726;2022-07-29T07:56:45;98191.63;;;19.69;48.55
58467;BME280;44255;49.244;7.726;2022-07-29T07:59:10;98188.00;;;20.24;46.47
58467;BME280;44255;49.244;7.726;2022-07-29T08:01:35;98184.13;;;20.09;44.87
58467;BME280;44255;49.244;7.726;2022-07-29T08:04:01;98190.28;;;20.65;43.94
58467;BME280;44255;49.244;7.726;2022-07-29T08:06:26;98198.44;;;20.11;44.54
58467;BME280;44255;49.244;7.726;2022-07-29T08:08:51;98190.44;;;19.81;45.64
58467;BME280;44255;49.244;7.726;2022-07-29T08:11:16;98194.53;;;20.13;45.46
58467;BME280;44255;49.244;7.726;2022-07-29T08:13:42;98190.38;;;20.37;45.33
58467;BME280;44255;49.244;7.726;2022-07-29T08:16:08;98190.38;;;20.37;44.85
58467;BME280;44255;49.244;7.726;2022-07-29T08:18:38;98191.09;;;19.93;44.64
58467;BME280;44255;49.244;7.726;2022-07-29T08:21:03;98194.09;;;20.18;44.75
58467;BME280;44255;49.244;7.726;2022-07-29T08:23:28;98195.50;;;20.40;43.61
58467;BME280;44255;49.244;7.726;2022-07-29T08:26:03;98190.13;;;19.56;45.04
58467;BME280;44255;49.244;7.726;2022-07-29T08:28:28;98194.47;;;20.23;44.39
58467;BME280;44255;49.244;7.726;2022-07-29T08:30:54;98196.56;;;20.84;43.82
58467;BME280;44255;49.244;7.726;2022-07-29T08:33:19;98188.94;;;20.88;42.78
58467;BME280;44255;49.244;7.726;2022-07-29T08:35:44;98190.38;;;20.74;42.89
58467;BME280;44255;49.244;7.726;2022-07-29T08:38:10;98196.19;;;20.24;44.07
58467;BME280;44255;49.244;7.726;2022-07-29T08:40:35;98200.28;;;20.10;43.78
58467;BME280;44255;49.244;7.726;2022-07-29T08:43:06;98195.44;;;20.68;42.81
58467;BME280;44255;49.244;7.726;2022-07-29T08:45:41;98202.50;;;20.79;42.37
58467;BME280;44255;49.244;7.726;2022-07-29T08:48:07;98204.94;;;21.09;41.95
58467;BME280;44255;49.244;7.726;2022-07-29T08:50:35;98207.13;;;21.05;40.78
58467;BME280;44255;49.244;7.726;2022-07-29T08:53:01;98199.94;;;21.22;40.62
58467;BME280;44255;49.244;7.726;2022-07-29T08:55:27;98200.59;;;20.98;41.37
58467;BME280;44255;49.244;7.726;2022-07-29T08:57:53;98201.47;;;21.51;39.79
58467;BME280;44255;49.244;7.726;2022-07-29T09:00:19;98197.69;;;21.44;39.79
58467;BME280;44255;49.244;7.726;2022-07-29T09:02:47;98206.94;;;21.86;40.11
58467;BME280;44255;49.244;7.726;2022-07-29T09:05:16;98208.94;;;21.41;40.16
58467;BME280;44255;49.244;7.726;2022-07-29T09:07:43;98198.75;;;21.86;39.51
58467;BME280;44255;49.244;7.726;2022-07-29T09:10:09;98199.53;;;22.21;39.01
58467;BME280;44255;49.244;7.726;2022-07-29T09:12:34;98197.06;;;22.94;37.71
58467;BME280;44255;49.244;7.726;2022-07-29T09:15:00;98188.34;;;22.91;37.85
58467;BME280;44255;49.244;7.726;2022-07-29T09:17:45;98206.91;;;22.29;37.94
58467;BME280;44255;49.244;7.726;2022-07-29T09:20:15;98206.19;;;22.19;38.45
58467;BME280;44255;49.244;7.726;2022-07-29T09:22:41;98198.94;;;23.19;36.63
58467;BME280;44255;49.244;7.726;2022-07-29T09:25:07;98199.28;;;22.82;37.78
58467;BME280;44255;49.244;7.726;2022-07-29T09:27:32;98193.13;;;22.56;38.34
58467;BME280;44255;49.244;7.726;2022-07-29T09:30:07;98193.56;;;22.34;38.88
58467;BME280;44255;49.244;7.726;2022-07-29T09:32:54;98207.66;;;22.64;38.00
58467;BME280;44255;49.244;7.726;2022-07-29T09:35:21;98199.72;;;22.36;38.62
58467;BME280;44255;49.244;7.726;2022-07-29T09:37:47;98207.19;;;22.09;38.90
58467;BME280;44255;49.244;7.726;2022-07-29T09:42:40;98195.34;;;23.18;37.33
58467;BME280;44255;49.244;7.726;2022-07-29T09:45:06;98194.13;;;23.21;37.01
58467;BME280;44255;49.244;7.726;2022-07-29T09:47:45;98200.63;;;23.28;37.84
58467;BME280;44255;49.244;7.726;2022-07-29T09:50:11;98199.56;;;23.13;37.49
58467;BME280;44255;49.244;7.726;2022-07-29T09:52:48;98190.44;;;23.62;37.46
58467;BME280;44255;49.244;7.726;2022-07-29T09:55:15;98187.81;;;23.12;37.42
58467;BME280;44255;49.244;7.726;2022-07-29T09:57:40;98184.66;;;23.48;37.09
58467;BME280;44255;49.244;7.726;2022-07-29T10:02:33;98206.28;;;22.68;38.69
58467;BME280;44255;49.244;7.726;2022-07-29T10:05:00;98199.78;;;22.61;39.06
58467;BME280;44255;49.244;7.726;2022-07-29T10:07:25;98193.63;;;23.09;38.47
58467;BME280;44255;49.244;7.726;2022-07-29T10:09:55;98210.38;;;22.97;38.38
58467;BME280;44255;49.244;7.726;2022-07-29T10:12:22;98206.91;;;23.45;37.64
58467;BME280;44255;49.244;7.726;2022-07-29T10:14:48;98197.88;;;23.36;37.33
58467;BME280;44255;49.244;7.726;2022-07-29T10:17:15;98204.19;;;23.37;36.37
58467;BME280;44255;49.244;7.726;2022-07-29T10:19:40;98201.59;;;23.44;36.67
58467;BME280;44255;49.244;7.726;2022-07-29T10:22:08;98187.59;;;23.95;35.07
58467;BME280;44255;49.244;7.726;2022-07-29T10:24:34;98190.72;;;23.84;35.81
58467;BME280;44255;49.244;7.726;2022-07-29T10:27:01;98184.13;;;24.01;35.84
58467;BME280;44255;49.244;7.726;2022-07-29T10:29:28;98194.53;;;23.58;36.23
58467;BME280;44255;49.244;7.726;2022-07-29T10:32:06;98186.56;;;23.31;35.35
58467;BME280;44255;49.244;7.726;2022-07-29T10:35:06;98187.97;;;23.75;33.92
58467;BME280;44255;49.244;7.726;2022-07-29T10:40:42;98178.81;;;24.31;33.93
58467;BME280;44255;49.244;7.726;2022-07-29T10:43:32;98168.41;;;24.18;34.66
58467;BME280;44255;49.244;7.726;2022-07-29T10:46:01;98169.91;;;24.29;34.50
58467;BME280;44255;49.244;7.726;2022-07-29T10:48:28;98163.97;;;24.49;34.44
58467;BME280;44255;49.244;7.726;2022-07-29T10:50:58;98167.75;;;24.71;33.63
58467;BME280;44255;49.244;7.726;2022-07-29T10:53:50;98163.75;;;25.12;32.46
58467;BME280;44255;49.244;7.726;2022-07-29T10:56:29;98154.66;;;24.97;32.93
58467;BME280;44255;49.244;7.726;2022-07-29T11:01:48;98153.47;;;24.52;33.16
58467;BME280;44255;49.244;7.726;2022-07-29T11:07:08;98160.75;;;24.45;32.43
58467;BME280;44255;49.244;7.726;2022-07-29T11:09:34;98157.00;;;24.61;32.21
58467;BME280;44255;49.244;7.726;2022-07-29T11:11:59;98152.06;;;25.18;32.11
58467;BME280;44255;49.244;7.726;2022-07-29T11:17:18;98145.53;;;25.64;32.50
58467;BME280;44255;49.244;7.726;2022-07-29T11:19:43;98146.84;;;25.84;30.78
58467;BME280;44255;49.244;7.726;2022-07-29T11:22:10;98141.13;;;26.00;31.39
58467;BME280;44255;49.244;7.726;2022-07-29T11:24:37;98145.41;;;25.88;30.78
58467;BME280;44255;49.244;7.726;2022-07-29T11:27:17;98150.44;;;25.24;30.61
58467;BME280;44255;49.244;7.726;2022-07-29T11:29:51;98143.78;;;25.93;30.86
58467;BME280;44255;49.244;7.726;2022-07-29T11:32:17;98147.84;;;26.56;29.82
58467;BME280;44255;49.244;7.726;2022-07-29T11:34:45;98137.78;;;26.70;30.53
58467;BME280;44255;49.244;7.726;2022-07-29T17:35:11;98114.84;;;25.16;27.49
58467;BME280;44255;49.244;7.726;2022-07-29T17:37:55;98113.22;;;25.82;26.99
58467;BME280;44255;49.244;7.726;2022-07-29T17:40:20;98119.47;;;25.45;27.35
58467;BME280;44255;49.244;7.726;2022-07-29T17:42:46;98121.25;;;24.93;28.68
58467;BME280;44255;49.244;7.726;2022-07-29T17:45:11;98119.97;;;24.65;28.61
58467;BME280;44255;49.244;7.726;2022-07-29T17:47:36;98121.06;;;24.09;29.56
58467;BME280;44255;49.244;7.726;2022-07-29T17:50:03;98122.06;;;24.17;29.68
58467;BME280;44255;49.244;7.726;2022-07-29T17:52:28;98124.47;;;24.35;29.97
58467;BME280;44255;49.244;7.726;2022-07-29T17:54:54;98124.66;;;24.33;30.22
58467;BME280;44255;49.244;7.726;2022-07-29T17:57:19;98126.53;;;24.33;30.47
58467;BME280;44255;49.244;7.726;2022-07-29T17:59:44;98125.88;;;24.07;30.41
58467;BME280;44255;49.244;7.726;2022-07-29T18:02:09;98125.25;;;23.97;31.17
58467;BME280;44255;49.244;7.726;2022-07-29T18:04:36;98134.06;;;23.76;31.08
58467;BME280;44255;49.244;7.726;2022-07-29T18:07:01;98132.38;;;24.06;31.40
58467;BME280;44255;49.244;7.726;2022-07-29T18:09:27;98135.19;;;23.98;31.55
58467;BME280;44255;49.244;7.726;2022-07-29T18:11:52;98140.31;;;24.24;31.97
58467;BME280;44255;49.244;7.726;2022-07-29T18:14:17;98138.53;;;23.85;33.42
58467;BME280;44255;49.244;7.726;2022-07-29T18:16:43;98147.22;;;23.89;34.00
58467;BME280;44255;49.244;7.726;2022-07-29T18:19:08;98143.66;;;23.80;33.89
58467;BME280;44255;49.244;7.726;2022-07-29T18:21:34;98153.22;;;23.44;33.68
58467;BME280;44255;49.244;7.726;2022-07-29T18:23:59;98160.97;;;23.07;35.52
58467;BME280;44255;49.244;7.726;2022-07-29T18:26:24;98156.31;;;23.24;34.31
58467;BME280;44255;49.244;7.726;2022-07-29T18:28:50;98158.19;;;23.16;35.87
58467;BME280;44255;49.244;7.726;2022-07-29T18:31:15;98163.72;;;22.91;36.11
58467;BME280;44255;49.244;7.726;2022-07-29T18:33:40;98163.56;;;22.67;36.28
58467;BME280;44255;49.244;7.726;2022-07-29T18:36:05;98167.63;;;22.38;35.82
58467;BME280;44255;49.244;7.726;2022-07-29T18:38:31;98168.31;;;22.49;37.26
58467;BME280;44255;49.244;7.726;2022-07-29T18:40:57;98170.00;;;22.33;37.61
58467;BME280;44255;49.244;7.726;2022-07-29T18:43:22;98178.88;;;22.19;38.45
58467;BME280;44255;49.244;7.726;2022-07-29T18:45:47;98175.31;;;21.83;38.53
58467;BME280;44255;49.244;7.726;2022-07-29T18:48:13;98176.34;;;21.82;38.96
58467;BME280;44255;49.244;7.726;2022-07-29T18:50:40;98173.56;;;21.66;39.54
58467;BME280;44255;49.244;7.726;2022-07-29T18:53:05;98178.63;;;21.52;39.86
58467;BME280;44255;49.244;7.726;2022-07-29T18:55:31;98173.00;;;21.54;39.35
58467;BME280;44255;49.244;7.726;2022-07-29T18:57:56;98183.78;;;21.55;40.75
58467;BME280;44255;49.244;7.726;2022-07-29T19:00:22;98188.38;;;21.29;40.02
58467;BME280;44255;49.244;7.726;2022-07-29T19:02:47;98200.31;;;21.09;40.00
58467;BME280;44255;49.244;7.726;2022-07-29T19:05:13;98199.38;;;20.92;38.31
58467;BME280;44255;49.244;7.726;2022-07-29T19:07:38;98212.31;;;20.90;38.27
58467;BME280;44255;49.244;7.726;2022-07-29T19:10:04;98223.78;;;21.47;38.79
58467;BME280;44255;49.244;7.726;2022-07-29T19:12:30;98225.19;;;21.86;37.13
58467;BME280;44255;49.244;7.726;2022-07-29T19:14:55;98219.81;;;22.10;36.91
58467;BME280;44255;49.244;7.726;2022-07-29T19:17:21;98219.13;;;22.08;37.30
58467;BME280;44255;49.244;7.726;2022-07-29T19:19:46;98233.72;;;22.42;37.83
58467;BME280;44255;49.244;7.726;2022-07-29T19:22:12;98231.81;;;22.26;37.61
58467;BME280;44255;49.244;7.726;2022-07-29T19:24:39;98238.84;;;22.37;37.93
58467;BME280;44255;49.244;7.726;2022-07-29T19:27:04;98247.88;;;22.29;38.54
58467;BME280;44255;49.244;7.726;2022-07-29T19:29:29;98248.88;;;22.28;38.47
58467;BME280;44255;49.244;7.726;2022-07-29T19:31:56;98258.94;;;22.19;38.27
58467;BME280;44255;49.244;7.726;2022-07-29T19:34:24;98270.00;;;22.18;38.76
58467;BME280;44255;49.244;7.726;2022-07-29T19:36:49;98261.63;;;22.11;39.20
58467;BME280;44255;49.244;7.726;2022-07-29T19:39:14;98274.91;;;22.06;39.87
58467;BME280;44255;49.244;7.726;2022-07-29T19:41:40;98275.94;;;22.05;39.64
58467;BME280;44255;49.244;7.726;2022-07-29T19:44:05;98283.78;;;22.00;40.00
58467;BME280;44255;49.244;7.726;2022-07-29T19:46:30;98290.78;;;22.02;40.03
58467;BME280;44255;49.244;7.726;2022-07-29T19:48:55;98295.44;;;21.83;40.79
58467;BME280;44255;49.244;7.726;2022-07-29T19:51:22;98306.91;;;21.87;40.98
58467;BME280;44255;49.244;7.726;2022-07-29T19:53:48;98308.03;;;21.76;41.29
58467;BME280;44255;49.244;7.726;2022-07-29T19:56:14;98308.72;;;21.78;41.14
58467;BME280;44255;49.244;7.726;2022-07-29T19:58:39;98315.84;;;21.71;41.68
58467;BME280;44255;49.244;7.726;2022-07-29T20:01:05;98319.53;;;21.62;41.79
58467;BME280;44255;49.244;7.726;2022-07-29T20:03:30;98326.25;;;21.49;42.11
58467;BME280;44255;49.244;7.726;2022-07-29T20:05:55;98315.56;;;21.30;42.72
58467;BME280;44255;49.244;7.726;2022-07-29T20:08:21;98334.72;;;21.38;42.59
58467;BME280;44255;49.244;7.726;2022-07-29T20:10:46;98328.88;;;21.33;43.39
58467;BME280;44255;49.244;7.726;2022-07-29T20:13:11;98335.19;;;20.97;43.73
58467;BME280;44255;49.244;7.726;2022-07-29T20:15:37;98332.16;;;21.00;43.58
58467;BME280;44255;49.244;7.726;2022-07-29T20:18:02;98346.25;;;20.95;44.34
58467;BME280;44255;49.244;7.726;2022-07-29T20:20:28;98354.59;;;20.48;45.10
58467;BME280;44255;49.244;7.726;2022-07-29T20:22:56;98354.34;;;20.87;44.17
58467;BME280;44255;49.244;7.726;2022-07-29T20:25:22;98354.94;;;20.81;44.07
58467;BME280;44255;49.244;7.726;2022-07-29T20:27:48;98356.81;;;20.62;44.46
58467;BME280;44255;49.244;7.726;2022-07-29T20:30:20;98363.22;;;20.89;44.17
58467;BME280;44255;49.244;7.726;2022-07-29T20:32:46;98361.19;;;20.91;43.87
58467;BME280;44255;49.244;7.726;2022-07-29T20:35:11;98366.97;;;20.88;44.26
58467;BME280;44255;49.244;7.726;2022-07-29T20:37:37;98359.63;;;20.70;44.38
58467;BME280;44255;49.244;7.726;2022-07-29T20:40:03;98354.25;;;20.61;44.38
58467;BME280;44255;49.244;7.726;2022-07-29T20:42:29;98343.34;;;20.61;44.63
58467;BME280;44255;49.244;7.726;2022-07-29T20:44:54;98344.81;;;20.55;44.36
58467;BME280;44255;49.244;7.726;2022-07-29T20:47:22;98348.31;;;20.65;44.33
58467;BME280;44255;49.244;7.726;2022-07-29T20:49:47;98359.75;;;20.41;44.88
58467;BME280;44255;49.244;7.726;2022-07-29T20:52:12;98361.47;;;20.52;44.78
58467;BME280;44255;49.244;7.726;2022-07-29T20:54:38;98368.22;;;20.48;44.72
58467;BME280;44255;49.244;7.726;2022-07-29T20:57:03;98366.63;;;20.17;45.70
58467;BME280;44255;49.244;7.726;2022-07-29T20:59:28;98368.97;;;20.30;44.94
